createdAt,value
2023-05-26T00:04:07.406Z,15.99
2023-05-26T00:07:55.355Z,15.99
2023-05-26T00:11:44.305Z,16.01
2023-05-26T00:15:33.261Z,16.04
2023-05-26T00:19:03.577Z,16.00
2023-05-26T00:22:35.157Z,16.08
2023-05-26T00:26:16.446Z,16.04
2023-05-26T00:29:40.660Z,15.97
2023-05-26T00:33:29.682Z,15.99
2023-05-26T00:37:17.319Z,15.78
2023-05-26T00:40:41.354Z,15.69
2023-05-26T00:44:30.271Z,15.79
2023-05-26T00:48:19.138Z,15.59
2023-05-26T00:52:08.102Z,15.64
2023-05-26T00:55:42.090Z,15.59
2023-05-26T00:59:29.649Z,15.47
2023-05-26T01:03:17.242Z,15.43
2023-05-26T01:06:49.301Z,15.49
2023-05-26T01:10:38.296Z,15.37
2023-05-26T01:14:30.008Z,15.36
2023-05-26T01:18:21.725Z,15.28
2023-05-26T01:22:10.723Z,15.20
2023-05-26T01:26:04.678Z,15.26
2023-05-26T01:29:53.629Z,15.14
2023-05-26T01:33:50.234Z,15.03
2023-05-26T01:37:32.760Z,14.94
2023-05-26T01:41:21.704Z,14.77
2023-05-26T01:45:16.528Z,14.69
2023-05-26T01:49:05.406Z,14.52
2023-05-26T01:52:49.722Z,14.40
2023-05-26T01:56:23.508Z,14.23
2023-05-26T02:00:12.433Z,14.06
2023-05-26T02:03:43.775Z,13.88
2023-05-26T02:07:14.567Z,13.78
2023-05-26T02:11:03.443Z,13.74
2023-05-26T02:14:52.383Z,13.71
2023-05-26T02:18:41.328Z,13.62
2023-05-26T02:22:30.238Z,13.51
2023-05-26T02:26:10.544Z,13.37
2023-05-26T02:29:41.301Z,13.18
2023-05-26T02:33:23.553Z,13.13
2023-05-26T02:37:11.112Z,13.00
2023-05-26T02:40:45.624Z,12.96
2023-05-26T02:44:22.050Z,12.66
2023-05-26T02:48:10.927Z,12.59
2023-05-26T02:51:59.852Z,12.53
2023-05-26T02:55:12.484Z,12.55
2023-05-26T02:58:56.836Z,12.54
2023-05-26T03:02:38.455Z,12.62
2023-05-26T03:06:03.722Z,12.75
2023-05-26T03:09:32.617Z,13.13
2023-05-26T03:13:15.467Z,13.52
2023-05-26T03:16:57.100Z,13.81
2023-05-26T03:20:43.376Z,14.26
2023-05-26T03:24:24.693Z,14.66
2023-05-26T03:28:13.571Z,14.89
2023-05-26T03:32:02.543Z,15.19
2023-05-26T03:35:22.205Z,15.68
2023-05-26T03:39:02.150Z,16.08
2023-05-26T03:42:42.287Z,16.40
2023-05-26T03:46:13.733Z,17.06
2023-05-26T03:49:45.225Z,17.35
2023-05-26T03:53:34.163Z,17.69
2023-05-26T03:57:14.248Z,18.55
2023-05-26T04:01:03.291Z,18.64
2023-05-26T04:04:50.720Z,18.88
2023-05-26T04:08:30.847Z,18.98
2023-05-26T04:11:50.891Z,19.36
2023-05-26T04:15:38.370Z,19.38
2023-05-26T04:19:09.688Z,19.80
2023-05-26T04:22:45.813Z,19.70
2023-05-26T04:26:17.923Z,19.85
2023-05-26T04:30:12.552Z,18.76
2023-05-26T04:33:50.505Z,17.52
2023-05-26T04:37:28.015Z,17.20
2023-05-26T04:40:44.157Z,16.74
2023-05-26T04:44:33.429Z,16.29
2023-05-26T04:48:13.656Z,15.99
2023-05-26T04:51:42.736Z,16.17
2023-05-26T04:55:31.710Z,16.27
2023-05-26T04:59:20.668Z,16.36
2023-05-26T05:03:11.124Z,16.43
2023-05-26T05:07:04.596Z,15.93
2023-05-26T05:10:42.149Z,16.20
2023-05-26T05:14:07.138Z,15.94
2023-05-26T05:17:56.157Z,16.31
2023-05-26T05:21:27.695Z,16.23
2023-05-26T05:25:15.457Z,16.15
2023-05-26T05:28:33.981Z,16.39
2023-05-26T05:32:03.560Z,16.47
2023-05-26T05:35:34.851Z,16.56
2023-05-26T05:39:06.952Z,16.97
2023-05-26T05:42:41.646Z,16.82
2023-05-26T05:46:05.593Z,16.89
2023-05-26T05:49:35.234Z,17.20
2023-05-26T05:53:24.284Z,17.36
2023-05-26T05:57:13.252Z,17.09
2023-05-26T06:00:36.567Z,16.69
2023-05-26T06:04:07.888Z,16.89
2023-05-26T06:07:44.781Z,17.08
2023-05-26T06:11:33.756Z,17.35
2023-05-26T06:15:15.760Z,17.26
2023-05-26T06:18:42.847Z,17.49
2023-05-26T06:22:14.206Z,17.24
2023-05-26T06:26:03.181Z,17.10
2023-05-26T06:29:23.481Z,17.18
2023-05-26T06:33:12.926Z,17.27
2023-05-26T06:37:01.508Z,17.22
2023-05-26T06:40:50.537Z,17.20
2023-05-26T06:44:32.234Z,17.28
2023-05-26T06:48:15.249Z,17.55
2023-05-26T06:52:04.211Z,17.44
2023-05-26T06:55:45.978Z,17.71
2023-05-26T06:59:25.055Z,17.62
2023-05-26T07:03:13.952Z,18.00
2023-05-26T07:07:03.011Z,17.79
2023-05-26T07:10:37.150Z,17.77
2023-05-26T07:14:16.047Z,18.09
2023-05-26T07:18:03.943Z,19.20
2023-05-26T07:21:45.578Z,19.94
2023-05-26T07:25:34.502Z,20.49
2023-05-26T07:28:58.937Z,19.75
2023-05-26T07:32:48.057Z,20.45
2023-05-26T07:36:37.095Z,20.72
2023-05-26T07:40:08.496Z,20.85
2023-05-26T07:43:57.242Z,20.67
2023-05-26T07:47:31.629Z,21.08
2023-05-26T07:51:10.651Z,21.98
2023-05-26T07:54:39.036Z,21.58
2023-05-26T07:58:11.119Z,20.83
2023-05-26T08:01:52.591Z,21.43
2023-05-26T08:05:41.629Z,21.33
2023-05-26T08:09:29.629Z,21.01
2023-05-26T08:13:05.707Z,21.47
2023-05-26T08:16:17.274Z,21.78
2023-05-26T08:20:09.088Z,22.26
2023-05-26T08:23:43.690Z,23.12
2023-05-26T08:27:20.333Z,22.47
2023-05-26T08:31:09.430Z,22.67
2023-05-26T08:34:27.029Z,22.90
2023-05-26T08:38:01.182Z,23.06
2023-05-26T08:41:25.498Z,22.16
2023-05-26T08:45:14.818Z,22.68
2023-05-26T08:48:34.514Z,22.36
2023-05-26T08:51:53.349Z,22.24
2023-05-26T08:55:03.026Z,22.08
2023-05-26T08:58:13.864Z,22.49
2023-05-26T09:01:51.916Z,23.18
2023-05-26T09:05:16.406Z,23.55
2023-05-26T09:08:34.996Z,23.28
2023-05-26T09:12:25.466Z,22.57
2023-05-26T09:19:49.935Z,23.64
2023-05-26T09:23:33.492Z,23.37
2023-05-26T09:27:22.501Z,23.50
2023-05-26T09:31:17.026Z,23.96
2023-05-26T09:34:52.094Z,22.99
2023-05-26T09:38:34.456Z,23.28
2023-05-26T09:42:23.535Z,23.85
2023-05-26T09:45:54.516Z,24.52
2023-05-26T09:49:15.481Z,23.90
2023-05-26T09:53:04.509Z,23.73
2023-05-26T09:56:53.848Z,24.24
2023-05-26T10:00:29.764Z,23.78
2023-05-26T10:04:09.519Z,24.10
2023-05-26T10:07:58.658Z,24.10
2023-05-26T10:11:38.995Z,24.70
2023-05-26T10:15:03.998Z,24.72
2023-05-26T10:18:52.476Z,24.74
2023-05-26T10:22:41.618Z,24.76
2023-05-26T10:26:23.933Z,24.32
2023-05-26T10:30:11.654Z,24.64
2023-05-26T10:34:18.517Z,24.22
2023-05-26T10:37:17.863Z,24.57
2023-05-26T10:40:05.757Z,24.51
2023-05-26T10:43:47.611Z,24.06
2023-05-26T10:47:46.596Z,24.77
2023-05-26T10:50:37.321Z,25.17
2023-05-26T10:54:27.014Z,25.26
2023-05-26T10:57:47.550Z,25.30
2023-05-26T11:01:28.135Z,26.00
2023-05-26T11:05:23.805Z,25.54
2023-05-26T11:09:15.572Z,24.80
2023-05-26T11:12:49.156Z,25.55
2023-05-26T11:16:38.573Z,25.21
2023-05-26T11:19:34.986Z,26.68
2023-05-26T11:22:51.925Z,26.89
2023-05-26T11:26:25.698Z,25.59
2023-05-26T11:29:15.379Z,25.84
2023-05-26T11:32:14.328Z,25.96
2023-05-26T11:35:02.888Z,26.80
2023-05-26T11:37:54.158Z,26.56
2023-05-26T11:41:15.613Z,26.72
2023-05-26T11:44:47.622Z,26.83
2023-05-26T11:47:45.085Z,26.77
2023-05-26T11:50:51.446Z,27.30
2023-05-26T11:53:42.857Z,27.70
2023-05-26T11:56:31.673Z,27.58
2023-05-26T11:59:41.707Z,26.63
2023-05-26T12:02:18.201Z,27.18
2023-05-26T12:05:47.641Z,26.93
2023-05-26T12:09:10.991Z,26.90
2023-05-26T12:12:30.054Z,26.79
2023-05-26T12:15:07.363Z,26.29
2023-05-26T12:18:14.859Z,27.37
2023-05-26T12:21:22.057Z,27.44
2023-05-26T12:24:57.187Z,26.49
2023-05-26T12:28:22.575Z,27.12
2023-05-26T12:31:28.700Z,27.19
2023-05-26T12:34:32.917Z,27.29
2023-05-26T12:37:26.608Z,28.00
2023-05-26T12:40:16.931Z,27.36
2023-05-26T12:43:19.370Z,27.45
2023-05-26T12:46:41.390Z,27.94
2023-05-26T12:49:54.061Z,27.25
2023-05-26T12:52:50.738Z,27.18
2023-05-26T12:56:01.484Z,27.63
2023-05-26T12:59:21.378Z,27.90
2023-05-26T13:02:43.117Z,28.66
2023-05-26T13:05:52.070Z,29.24
2023-05-26T13:09:26.502Z,28.27
2023-05-26T13:12:56.153Z,27.87
2023-05-26T13:16:25.869Z,27.33
2023-05-26T13:20:10.375Z,27.48
2023-05-26T13:23:19.111Z,28.89
2023-05-26T13:26:50.603Z,29.62
2023-05-26T13:30:28.056Z,28.57
2023-05-26T13:34:18.387Z,28.44
2023-05-26T13:37:59.223Z,27.16
2023-05-26T13:41:21.853Z,28.20
2023-05-26T13:44:49.969Z,27.39
2023-05-26T13:48:14.607Z,26.86
2023-05-26T13:52:03.236Z,27.01
2023-05-26T13:55:38.680Z,27.76
2023-05-26T13:59:04.796Z,27.20
2023-05-26T14:01:55.808Z,26.86
2023-05-26T14:05:35.974Z,27.36
2023-05-26T14:09:11.744Z,28.13
2023-05-26T14:12:28.074Z,28.99
2023-05-26T14:15:37.021Z,27.74
2023-05-26T14:19:05.370Z,29.23
2023-05-26T14:22:35.363Z,29.12
2023-05-26T14:25:59.581Z,27.86
2023-05-26T14:29:03.531Z,27.97
2023-05-26T14:32:23.921Z,28.57
2023-05-26T14:35:25.439Z,28.00
2023-05-26T14:38:16.938Z,28.15
2023-05-26T14:40:48.086Z,28.32
2023-05-26T14:43:47.186Z,28.28
2023-05-26T14:47:23.720Z,27.40
2023-05-26T14:50:49.138Z,27.60
2023-05-26T14:54:21.309Z,26.92
2023-05-26T14:57:46.159Z,26.87
2023-05-26T15:01:11.031Z,27.23
2023-05-26T15:04:22.134Z,28.06
2023-05-26T15:08:03.053Z,26.83
2023-05-26T15:11:17.947Z,26.29
2023-05-26T15:14:28.273Z,26.61
2023-05-26T15:18:11.762Z,27.11
2023-05-26T15:21:52.794Z,26.92
2023-05-26T15:25:41.796Z,27.56
2023-05-26T15:29:16.121Z,26.75
2023-05-26T15:32:56.187Z,27.21
2023-05-26T15:35:58.606Z,27.43
2023-05-26T15:39:26.274Z,27.27
2023-05-26T15:42:37.925Z,26.98
2023-05-26T15:46:05.165Z,26.61
2023-05-26T15:49:39.524Z,26.89
2023-05-26T15:53:14.997Z,25.95
2023-05-26T15:57:10.954Z,25.32
2023-05-26T16:00:52.840Z,25.74
2023-05-26T16:08:42.592Z,25.33
2023-05-26T16:12:17.508Z,25.92
2023-05-26T16:15:59.209Z,25.86
2023-05-26T16:19:49.275Z,24.74
2023-05-26T16:22:20.415Z,25.16
2023-05-26T16:25:34.727Z,25.47
2023-05-26T16:29:09.516Z,24.81
2023-05-26T16:32:51.569Z,24.94
2023-05-26T16:36:31.256Z,25.46
2023-05-26T16:40:20.219Z,25.38
2023-05-26T16:43:17.113Z,25.56
2023-05-26T16:47:09.112Z,25.07
2023-05-26T16:50:57.289Z,25.41
2023-05-26T16:53:56.316Z,25.54
2023-05-26T16:57:02.884Z,25.45
2023-05-26T17:00:52.436Z,25.19
2023-05-26T17:04:41.605Z,25.10
2023-05-26T17:08:14.761Z,24.82
2023-05-26T17:11:36.894Z,24.54
2023-05-26T17:15:18.942Z,24.29
2023-05-26T17:19:02.289Z,24.41
2023-05-26T17:22:00.195Z,24.45
2023-05-26T17:25:14.917Z,24.09
2023-05-26T17:28:46.725Z,23.66
2023-05-26T17:31:58.086Z,23.35
2023-05-26T17:35:33.731Z,22.89
2023-05-26T17:39:22.892Z,22.73
2023-05-26T17:43:12.224Z,22.50
2023-05-26T17:46:43.422Z,22.19
2023-05-26T17:50:30.584Z,21.96
2023-05-26T17:53:48.059Z,21.71
2023-05-26T17:57:02.716Z,21.60
2023-05-26T17:59:52.275Z,21.56
2023-05-26T18:03:01.967Z,21.61
2023-05-26T18:05:59.725Z,21.46
2023-05-26T18:09:15.276Z,21.38
2023-05-26T18:12:23.304Z,21.10
2023-05-26T18:15:39.478Z,21.20
2023-05-26T18:19:29.547Z,21.17
2023-05-26T18:23:02.082Z,20.87
2023-05-26T18:26:51.368Z,20.53
2023-05-26T18:30:22.746Z,20.31
2023-05-26T18:33:31.316Z,19.98
2023-05-26T18:36:18.812Z,19.85
2023-05-26T18:39:40.764Z,19.72
2023-05-26T18:43:15.225Z,19.55
2023-05-26T18:46:08.493Z,19.19
2023-05-26T18:48:50.701Z,19.10
2023-05-26T18:51:45.734Z,19.10
2023-05-26T18:55:15.928Z,19.03
2023-05-26T18:58:58.823Z,18.88
2023-05-26T19:01:57.607Z,18.70
2023-05-26T19:05:20.138Z,18.58
2023-05-26T19:08:25.614Z,18.38
2023-05-26T19:11:19.184Z,18.29
2023-05-26T19:14:48.599Z,18.09
2023-05-26T19:18:38.699Z,17.96
2023-05-26T19:22:22.442Z,17.81
2023-05-26T19:25:34.221Z,17.86
2023-05-26T19:28:26.289Z,17.82
2023-05-26T19:30:59.843Z,17.72
2023-05-26T19:34:28.687Z,17.56
2023-05-26T19:38:16.979Z,17.43
2023-05-26T19:41:04.556Z,17.32
2023-05-26T19:43:59.317Z,17.18
2023-05-26T19:47:16.321Z,17.08
2023-05-26T19:50:08.611Z,16.97
2023-05-26T19:53:24.043Z,16.84
2023-05-26T19:56:46.606Z,16.81
2023-05-26T20:00:11.654Z,16.71
2023-05-26T20:03:22.550Z,16.61
2023-05-26T20:06:58.355Z,16.50
2023-05-26T20:09:54.636Z,16.30
2023-05-26T20:13:26.673Z,16.24
2023-05-26T20:16:50.471Z,16.23
2023-05-26T20:20:35.519Z,16.25
2023-05-26T20:24:21.888Z,16.06
2023-05-26T20:27:51.006Z,15.95
2023-05-26T20:31:01.521Z,15.82
2023-05-26T20:33:39.912Z,15.79
2023-05-26T20:37:29.480Z,15.72
2023-05-26T20:40:34.449Z,15.60
2023-05-26T20:43:56.689Z,15.48
2023-05-26T20:47:18.164Z,15.48
2023-05-26T20:50:50.595Z,15.34
2023-05-26T20:54:13.941Z,15.37
2023-05-26T20:57:43.772Z,15.16
2023-05-26T21:01:13.221Z,15.05
2023-05-26T21:04:20.995Z,14.96
2023-05-26T21:07:43.245Z,14.88
2023-05-26T21:11:14.462Z,14.84
2023-05-26T21:14:18.587Z,14.80
2023-05-26T21:17:37.416Z,14.64
2023-05-26T21:21:06.477Z,14.54
2023-05-26T21:24:37.474Z,14.46
2023-05-26T21:28:26.578Z,14.39
2023-05-26T21:31:33.638Z,14.31
2023-05-26T21:34:57.950Z,14.22
2023-05-26T21:37:54.009Z,14.12
2023-05-26T21:41:22.727Z,14.04
2023-05-26T21:45:10.396Z,13.90
2023-05-26T21:48:48.365Z,13.80
2023-05-26T21:52:29.502Z,13.68
2023-05-26T21:55:51.051Z,13.56
2023-05-26T21:59:20.757Z,13.53
2023-05-26T22:02:45.564Z,13.50
2023-05-26T22:06:24.493Z,13.54
2023-05-26T22:10:13.433Z,13.40
2023-05-26T22:13:44.162Z,13.32
2023-05-26T22:17:15.636Z,13.31
2023-05-26T22:20:53.948Z,13.34
2023-05-26T22:24:14.115Z,13.15
2023-05-26T22:27:36.280Z,13.30
2023-05-26T22:30:48.504Z,13.21
2023-05-26T22:34:00.827Z,13.16
2023-05-26T22:37:45.891Z,13.14
2023-05-26T22:41:16.446Z,13.07
2023-05-26T22:43:54.190Z,13.03
2023-05-26T22:46:56.689Z,13.18
2023-05-26T22:49:48.326Z,13.03
2023-05-26T22:52:40.206Z,13.06
2023-05-26T22:56:14.083Z,12.98
2023-05-26T22:59:46.466Z,12.90
2023-05-26T23:03:27.173Z,12.76
2023-05-26T23:06:12.295Z,12.71
2023-05-26T23:09:18.553Z,12.66
2023-05-26T23:12:10.909Z,12.64
2023-05-26T23:15:14.092Z,12.48
2023-05-26T23:18:46.979Z,12.35
2023-05-26T23:22:35.870Z,12.13
2023-05-26T23:26:04.922Z,11.82
2023-05-26T23:29:29.518Z,11.61
2023-05-26T23:33:08.238Z,11.49
2023-05-26T23:35:43.021Z,11.39
2023-05-26T23:39:09.291Z,11.32
2023-05-26T23:42:51.880Z,11.23
2023-05-26T23:46:33.485Z,11.07
2023-05-26T23:50:22.581Z,10.98
2023-05-26T23:53:17.892Z,10.81
2023-05-26T23:56:42.275Z,10.88
